sensor_id;sensor_type;location;lat;lon;timestamp;P1;durP1;ratioP1;P2;durP2;ratioP2
44452;SDS011;30155;52.164;21.236;2022-09-09T00:08:19;10.40;;;5.58;;
44452;SDS011;30155;52.164;21.236;2022-09-09T00:13:22;7.45;;;5.67;;
44452;SDS011;30155;52.164;21.236;2022-09-09T00:23:58;9.18;;;6.50;;
44452;SDS011;30155;52.164;21.236;2022-09-09T00:34:14;11.30;;;6.70;;
44452;SDS011;30155;52.164;21.236;2022-09-09T00:39:13;9.18;;;6.15;;
44452;SDS011;30155;52.164;21.236;2022-09-09T00:44:15;9.73;;;6.40;;
44452;SDS011;30155;52.164;21.236;2022-09-09T00:54:51;7.75;;;5.80;;
44452;SDS011;30155;52.164;21.236;2022-09-09T00:59:48;7.92;;;5.67;;
44452;SDS011;30155;52.164;21.236;2022-09-09T01:05:25;9.13;;;6.40;;
44452;SDS011;30155;52.164;21.236;2022-09-09T01:15:28;8.88;;;6.33;;
44452;SDS011;30155;52.164;21.236;2022-09-09T01:20:37;8.63;;;5.78;;
44452;SDS011;30155;52.164;21.236;2022-09-09T01:30:59;10.72;;;7.05;;
44452;SDS011;30155;52.164;21.236;2022-09-09T01:35:57;12.07;;;7.40;;
44452;SDS011;30155;52.164;21.236;2022-09-09T01:40:59;9.25;;;7.33;;
44452;SDS011;30155;52.164;21.236;2022-09-09T01:45:54;11.45;;;7.22;;
44452;SDS011;30155;52.164;21.236;2022-09-09T01:50:49;7.80;;;5.83;;
44452;SDS011;30155;52.164;21.236;2022-09-09T01:55:41;8.03;;;6.05;;
44452;SDS011;30155;52.164;21.236;2022-09-09T02:00:41;11.20;;;7.95;;
44452;SDS011;30155;52.164;21.236;2022-09-09T02:05:38;11.68;;;7.72;;
44452;SDS011;30155;52.164;21.236;2022-09-09T02:21:01;13.38;;;7.65;;
44452;SDS011;30155;52.164;21.236;2022-09-09T02:25:54;9.85;;;7.67;;
44452;SDS011;30155;52.164;21.236;2022-09-09T02:30:49;11.50;;;7.67;;
44452;SDS011;30155;52.164;21.236;2022-09-09T02:35:51;13.22;;;7.40;;
44452;SDS011;30155;52.164;21.236;2022-09-09T02:40:45;16.45;;;8.60;;
44452;SDS011;30155;52.164;21.236;2022-09-09T02:45:44;13.95;;;9.05;;
44452;SDS011;30155;52.164;21.236;2022-09-09T02:50:55;10.55;;;8.30;;
44452;SDS011;30155;52.164;21.236;2022-09-09T02:56:04;16.27;;;8.63;;
44452;SDS011;30155;52.164;21.236;2022-09-09T03:00:58;12.95;;;8.18;;
44452;SDS011;30155;52.164;21.236;2022-09-09T03:05:52;11.48;;;8.98;;
44452;SDS011;30155;52.164;21.236;2022-09-09T03:10:43;11.38;;;7.10;;
44452;SDS011;30155;52.164;21.236;2022-09-09T03:15:36;10.18;;;7.85;;
44452;SDS011;30155;52.164;21.236;2022-09-09T03:20:30;11.78;;;8.15;;
44452;SDS011;30155;52.164;21.236;2022-09-09T03:25:22;8.83;;;7.62;;
44452;SDS011;30155;52.164;21.236;2022-09-09T03:30:17;10.18;;;7.30;;
44452;SDS011;30155;52.164;21.236;2022-09-09T03:35:09;8.80;;;6.95;;
44452;SDS011;30155;52.164;21.236;2022-09-09T03:40:00;9.10;;;6.78;;
44452;SDS011;30155;52.164;21.236;2022-09-09T03:44:52;8.98;;;7.42;;
44452;SDS011;30155;52.164;21.236;2022-09-09T03:49:45;7.67;;;6.42;;
44452;SDS011;30155;52.164;21.236;2022-09-09T03:54:37;9.20;;;6.70;;
44452;SDS011;30155;52.164;21.236;2022-09-09T03:59:29;8.30;;;5.92;;
44452;SDS011;30155;52.164;21.236;2022-09-09T04:04:21;5.92;;;4.92;;
44452;SDS011;30155;52.164;21.236;2022-09-09T04:09:12;6.17;;;5.17;;
44452;SDS011;30155;52.164;21.236;2022-09-09T04:14:03;6.95;;;4.90;;
44452;SDS011;30155;52.164;21.236;2022-09-09T04:18:56;6.95;;;5.67;;
44452;SDS011;30155;52.164;21.236;2022-09-09T04:23:48;5.65;;;5.05;;
44452;SDS011;30155;52.164;21.236;2022-09-09T04:28:39;5.92;;;4.58;;
44452;SDS011;30155;52.164;21.236;2022-09-09T04:33:33;5.78;;;4.83;;
44452;SDS011;30155;52.164;21.236;2022-09-09T04:38:24;7.30;;;4.70;;
44452;SDS011;30155;52.164;21.236;2022-09-09T04:43:17;5.03;;;4.53;;
44452;SDS011;30155;52.164;21.236;2022-09-09T04:48:10;4.95;;;4.25;;
44452;SDS011;30155;52.164;21.236;2022-09-09T04:53:02;4.75;;;4.15;;
44452;SDS011;30155;52.164;21.236;2022-09-09T04:57:55;6.05;;;5.30;;
44452;SDS011;30155;52.164;21.236;2022-09-09T05:02:48;5.95;;;4.15;;
44452;SDS011;30155;52.164;21.236;2022-09-09T05:07:39;4.95;;;4.17;;
44452;SDS011;30155;52.164;21.236;2022-09-09T05:12:30;5.10;;;4.22;;
44452;SDS011;30155;52.164;21.236;2022-09-09T05:17:23;4.92;;;4.45;;
44452;SDS011;30155;52.164;21.236;2022-09-09T05:22:18;4.78;;;4.37;;
44452;SDS011;30155;52.164;21.236;2022-09-09T05:27:11;5.03;;;3.80;;
44452;SDS011;30155;52.164;21.236;2022-09-09T05:32:03;7.42;;;3.83;;
44452;SDS011;30155;52.164;21.236;2022-09-09T05:36:55;4.10;;;3.70;;
44452;SDS011;30155;52.164;21.236;2022-09-09T05:41:47;4.87;;;4.47;;
44452;SDS011;30155;52.164;21.236;2022-09-09T05:46:38;6.22;;;4.83;;
44452;SDS011;30155;52.164;21.236;2022-09-09T05:51:30;4.75;;;4.17;;
44452;SDS011;30155;52.164;21.236;2022-09-09T05:56:23;6.15;;;4.40;;
44452;SDS011;30155;52.164;21.236;2022-09-09T06:01:24;5.60;;;4.67;;
44452;SDS011;30155;52.164;21.236;2022-09-09T06:06:18;5.10;;;4.60;;
44452;SDS011;30155;52.164;21.236;2022-09-09T06:11:16;5.75;;;5.20;;
44452;SDS011;30155;52.164;21.236;2022-09-09T06:16:15;6.50;;;4.90;;
44452;SDS011;30155;52.164;21.236;2022-09-09T06:21:09;6.17;;;5.10;;
44452;SDS011;30155;52.164;21.236;2022-09-09T06:26:10;6.35;;;5.75;;
44452;SDS011;30155;52.164;21.236;2022-09-09T06:31:07;7.58;;;5.95;;
44452;SDS011;30155;52.164;21.236;2022-09-09T06:36:02;7.65;;;6.10;;
44452;SDS011;30155;52.164;21.236;2022-09-09T06:40:55;8.40;;;5.55;;
44452;SDS011;30155;52.164;21.236;2022-09-09T06:45:53;7.00;;;6.30;;
44452;SDS011;30155;52.164;21.236;2022-09-09T06:50:50;7.50;;;6.37;;
44452;SDS011;30155;52.164;21.236;2022-09-09T06:55:42;8.40;;;6.35;;
44452;SDS011;30155;52.164;21.236;2022-09-09T07:00:35;8.28;;;7.45;;
44452;SDS011;30155;52.164;21.236;2022-09-09T07:05:30;7.55;;;6.78;;
44452;SDS011;30155;52.164;21.236;2022-09-09T07:10:21;8.85;;;6.58;;
44452;SDS011;30155;52.164;21.236;2022-09-09T07:15:12;7.15;;;6.45;;
44452;SDS011;30155;52.164;21.236;2022-09-09T07:20:06;9.70;;;8.10;;
44452;SDS011;30155;52.164;21.236;2022-09-09T07:24:58;7.72;;;6.97;;
44452;SDS011;30155;52.164;21.236;2022-09-09T07:29:49;7.50;;;6.03;;
44452;SDS011;30155;52.164;21.236;2022-09-09T07:34:42;8.35;;;6.97;;
44452;SDS011;30155;52.164;21.236;2022-09-09T07:39:34;8.38;;;7.22;;
44452;SDS011;30155;52.164;21.236;2022-09-09T07:44:25;8.20;;;6.87;;
44452;SDS011;30155;52.164;21.236;2022-09-09T07:49:22;7.72;;;6.80;;
44452;SDS011;30155;52.164;21.236;2022-09-09T07:54:14;8.65;;;6.92;;
44452;SDS011;30155;52.164;21.236;2022-09-09T07:59:09;7.28;;;6.58;;
44452;SDS011;30155;52.164;21.236;2022-09-09T08:04:04;8.35;;;7.17;;
44452;SDS011;30155;52.164;21.236;2022-09-09T08:09:01;8.13;;;6.87;;
44452;SDS011;30155;52.164;21.236;2022-09-09T08:13:55;7.87;;;6.95;;
44452;SDS011;30155;52.164;21.236;2022-09-09T08:18:47;10.13;;;7.00;;
44452;SDS011;30155;52.164;21.236;2022-09-09T08:23:40;7.62;;;6.80;;
44452;SDS011;30155;52.164;21.236;2022-09-09T08:28:34;9.68;;;7.65;;
44452;SDS011;30155;52.164;21.236;2022-09-09T08:33:25;10.55;;;6.92;;
44452;SDS011;30155;52.164;21.236;2022-09-09T08:38:16;9.28;;;7.92;;
44452;SDS011;30155;52.164;21.236;2022-09-09T08:43:09;9.40;;;7.75;;
44452;SDS011;30155;52.164;21.236;2022-09-09T08:53:40;8.80;;;6.85;;
44452;SDS011;30155;52.164;21.236;2022-09-09T08:58:43;8.35;;;7.45;;
44452;SDS011;30155;52.164;21.236;2022-09-09T09:14:34;11.70;;;9.38;;
44452;SDS011;30155;52.164;21.236;2022-09-09T09:19:28;10.90;;;9.50;;
44452;SDS011;30155;52.164;21.236;2022-09-09T22:28:02;11.00;;;9.90;;
44452;SDS011;30155;52.164;21.236;2022-09-09T22:32:47;9.88;;;8.88;;
44452;SDS011;30155;52.164;21.236;2022-09-09T22:37:40;9.90;;;8.90;;
44452;SDS011;30155;52.164;21.236;2022-09-09T22:42:31;10.13;;;9.10;;
44452;SDS011;30155;52.164;21.236;2022-09-09T22:47:24;10.80;;;9.30;;
44452;SDS011;30155;52.164;21.236;2022-09-09T22:52:15;9.38;;;8.40;;
44452;SDS011;30155;52.164;21.236;2022-09-09T22:57:06;8.20;;;7.50;;
44452;SDS011;30155;52.164;21.236;2022-09-09T23:01:58;10.82;;;9.80;;
44452;SDS011;30155;52.164;21.236;2022-09-09T23:06:49;9.78;;;8.78;;
44452;SDS011;30155;52.164;21.236;2022-09-09T23:11:40;9.25;;;8.03;;
44452;SDS011;30155;52.164;21.236;2022-09-09T23:16:36;10.45;;;8.65;;
44452;SDS011;30155;52.164;21.236;2022-09-09T23:21:29;9.43;;;8.53;;
44452;SDS011;30155;52.164;21.236;2022-09-09T23:26:21;9.30;;;8.38;;
44452;SDS011;30155;52.164;21.236;2022-09-09T23:31:15;8.95;;;8.05;;
44452;SDS011;30155;52.164;21.236;2022-09-09T23:36:10;10.65;;;7.78;;
44452;SDS011;30155;52.164;21.236;2022-09-09T23:41:06;10.25;;;8.68;;
44452;SDS011;30155;52.164;21.236;2022-09-09T23:46:00;8.43;;;7.47;;
44452;SDS011;30155;52.164;21.236;2022-09-09T23:51:02;9.43;;;8.28;;
44452;SDS011;30155;52.164;21.236;2022-09-09T23:56:13;8.55;;;7.75;;
